Time,TemperatureF,DewpointF,PressureIn,WindDirection,WindDirectionDegrees,WindSpeedMPH,WindSpeedGustMPH,Humidity,HourlyPrecipIn,Conditions,Clouds,dailyrainin,SoftwareType,DateUTC
2013-01-10 00:05:00,69.4,67.6,30.27,ESE,105,0.0,1.0,94,0.00,,,0.00,Wunderground v.1.15,2013-01-10 05:05:00,
2013-01-10 00:10:00,69.4,67.6,30.27,ESE,105,0.0,1.0,94,0.00,,,0.00,Wunderground v.1.15,2013-01-10 05:10:00,
2013-01-10 00:15:00,69.4,67.6,30.27,ESE,105,0.0,1.0,94,0.00,,,0.00,Wunderground v.1.15,2013-01-10 05:15:00,
2013-01-10 00:25:00,69.3,67.8,30.26,ESE,105,0.0,1.0,95,0.00,,,0.00,Wunderground v.1.15,2013-01-10 05:25:00,
2013-01-10 00:30:00,69.3,67.8,30.26,ESE,105,0.0,1.0,95,0.00,,,0.00,Wunderground v.1.15,2013-01-10 05:30:00,
2013-01-10 00:40:00,69.3,67.8,30.26,ESE,105,0.0,1.0,95,0.00,,,0.00,Wunderground v.1.15,2013-01-10 05:40:00,
2013-01-10 00:50:00,69.3,67.8,30.26,ESE,105,0.0,1.0,95,0.00,,,0.00,Wunderground v.1.15,2013-01-10 05:50:00,
2013-01-10 01:00:00,69.1,67.6,30.26,ESE,105,0.0,1.0,95,0.00,,,0.00,Wunderground v.1.15,2013-01-10 06:00:00,
2013-01-10 01:10:00,69.3,68.1,30.26,ESE,105,0.0,1.0,96,0.00,,,0.00,Wunderground v.1.15,2013-01-10 06:10:00,
2013-01-10 01:15:00,69.3,68.1,30.26,ESE,105,0.0,1.0,96,0.00,,,0.00,Wunderground v.1.15,2013-01-10 06:15:00,
2013-01-10 01:25:00,69.3,68.1,30.26,ESE,105,0.0,1.0,96,0.00,,,0.00,Wunderground v.1.15,2013-01-10 06:25:00,
2013-01-10 01:35:00,69.1,67.9,30.26,ESE,105,0.0,1.0,96,0.00,,,0.00,Wunderground v.1.15,2013-01-10 06:35:00,
2013-01-10 01:45:00,69.1,67.9,30.26,ESE,105,0.0,1.0,96,0.00,,,0.00,Wunderground v.1.15,2013-01-10 06:45:00,
2013-01-10 01:55:00,69.1,67.9,30.26,ESE,105,0.0,1.0,96,0.00,,,0.00,Wunderground v.1.15,2013-01-10 06:55:00,
2013-01-10 02:00:00,69.1,67.9,30.26,ESE,105,0.0,1.0,96,0.00,,,0.00,Wunderground v.1.15,2013-01-10 07:00:00,
2013-01-10 02:05:00,68.9,67.7,30.26,ESE,105,0.0,1.0,96,0.00,,,0.00,Wunderground v.1.15,2013-01-10 07:05:00,
2013-01-10 02:15:00,68.8,67.6,30.26,ESE,105,0.0,1.0,96,0.00,,,0.00,Wunderground v.1.15,2013-01-10 07:15:00,
2013-01-10 02:25:00,68.6,67.4,30.25,ESE,105,0.0,1.0,96,0.00,,,0.00,Wunderground v.1.15,2013-01-10 07:25:00,
2013-01-10 02:35:00,68.8,67.9,30.25,ESE,105,0.0,1.0,97,0.00,,,0.00,Wunderground v.1.15,2013-01-10 07:35:00,
2013-01-10 02:40:00,68.8,67.9,30.25,ESE,105,0.0,1.0,97,0.00,,,0.00,Wunderground v.1.15,2013-01-10 07:40:00,
2013-01-10 02:50:00,68.8,67.9,30.25,ESE,105,0.0,1.0,97,0.00,,,0.00,Wunderground v.1.15,2013-01-10 07:50:00,
2013-01-10 03:00:00,68.8,67.9,30.25,ESE,105,0.0,1.0,97,0.00,,,0.00,Wunderground v.1.15,2013-01-10 08:00:00,
2013-01-10 03:10:00,68.8,67.9,30.25,ESE,105,0.0,1.0,97,0.00,,,0.00,Wunderground v.1.15,2013-01-10 08:10:00,
2013-01-10 03:20:00,68.8,67.9,30.24,ESE,105,0.0,1.0,97,0.00,,,0.00,Wunderground v.1.15,2013-01-10 08:20:00,
2013-01-10 03:25:00,68.8,67.9,30.24,ESE,105,0.0,1.0,97,0.00,,,0.00,Wunderground v.1.15,2013-01-10 08:25:00,
2013-01-10 03:35:00,68.8,67.9,30.24,ESE,105,0.0,1.0,97,0.00,,,0.00,Wunderground v.1.15,2013-01-10 08:35:00,
2013-01-10 03:45:00,68.9,68.0,30.24,East,88,0.0,1.0,97,0.00,,,0.00,Wunderground v.1.15,2013-01-10 08:45:00,
2013-01-10 03:55:00,68.9,68.0,30.24,East,88,0.0,1.0,97,0.00,,,0.00,Wunderground v.1.15,2013-01-10 08:55:00,
2013-01-10 04:05:00,68.9,68.0,30.24,NE,47,0.0,1.0,97,0.00,,,0.00,Wunderground v.1.15,2013-01-10 09:05:00,
2013-01-10 04:10:00,68.9,68.0,30.24,NE,47,0.0,1.0,97,0.00,,,0.00,Wunderground v.1.15,2013-01-10 09:10:00,
2013-01-10 04:20:00,68.9,68.0,30.24,NE,47,0.0,1.0,97,0.00,,,0.00,Wunderground v.1.15,2013-01-10 09:20:00,
2013-01-10 04:30:00,68.8,67.9,30.24,NE,47,0.0,1.0,97,0.00,,,0.00,Wunderground v.1.15,2013-01-10 09:30:00,
2013-01-10 04:40:00,68.8,67.9,30.23,NE,47,0.0,1.0,97,0.00,,,0.00,Wunderground v.1.15,2013-01-10 09:40:00,
2013-01-10 04:50:00,68.8,67.9,30.23,NE,47,0.0,1.0,97,0.00,,,0.00,Wunderground v.1.15,2013-01-10 09:50:00,
2013-01-10 04:55:00,68.8,67.9,30.23,NE,47,0.0,1.0,97,0.00,,,0.00,Wunderground v.1.15,2013-01-10 09:55:00,
2013-01-10 05:05:00,68.8,67.9,30.23,NE,47,0.0,1.0,97,0.00,,,0.00,Wunderground v.1.15,2013-01-10 10:05:00,
2013-01-10 05:15:00,68.6,67.7,30.23,NE,47,0.0,1.0,97,0.00,,,0.00,Wunderground v.1.15,2013-01-10 10:15:00,
2013-01-10 05:25:00,68.8,67.9,30.23,NE,47,0.0,1.0,97,0.00,,,0.00,Wunderground v.1.15,2013-01-10 10:25:00,
2013-01-10 05:35:00,68.8,67.9,30.24,NE,47,0.0,1.0,97,0.00,,,0.00,Wunderground v.1.15,2013-01-10 10:35:00,
2013-01-10 05:40:00,68.8,67.9,30.24,NE,47,0.0,1.0,97,0.00,,,0.00,Wunderground v.1.15,2013-01-10 10:40:00,
2013-01-10 05:50:00,68.8,67.9,30.24,NE,47,0.0,1.0,97,0.00,,,0.00,Wunderground v.1.15,2013-01-10 10:50:00,
2013-01-10 06:00:00,68.8,67.9,30.24,NE,47,0.0,1.0,97,0.00,,,0.00,Wunderground v.1.15,2013-01-10 11:00:00,
2013-01-10 06:10:00,68.8,67.9,30.24,NE,47,0.0,1.0,97,0.00,,,0.00,Wunderground v.1.15,2013-01-10 11:10:00,
2013-01-10 06:20:00,68.8,67.9,30.25,NE,47,0.0,1.0,97,0.00,,,0.00,Wunderground v.1.15,2013-01-10 11:20:00,
2013-01-10 06:25:00,68.8,67.9,30.25,NE,47,0.0,1.0,97,0.00,,,0.00,Wunderground v.1.15,2013-01-10 11:25:00,
2013-01-10 06:35:00,68.8,67.9,30.25,NE,47,0.0,1.0,97,0.00,,,0.00,Wunderground v.1.15,2013-01-10 11:35:00,
2013-01-10 06:45:00,68.6,67.7,30.25,NE,47,0.0,1.0,97,0.00,,,0.00,Wunderground v.1.15,2013-01-10 11:45:00,
2013-01-10 06:55:00,68.6,67.7,30.25,NE,47,0.0,1.0,97,0.00,,,0.00,Wunderground v.1.15,2013-01-10 11:55:00,
2013-01-10 07:05:00,68.4,67.5,30.25,ENE,59,0.0,1.0,97,0.00,,,0.00,Wunderground v.1.15,2013-01-10 12:05:00,
2013-01-10 07:15:00,68.4,67.5,30.25,ENE,59,0.0,1.0,97,0.00,,,0.00,Wunderground v.1.15,2013-01-10 12:15:00,
2013-01-10 07:25:00,68.3,67.4,30.26,ENE,59,0.0,1.0,97,0.00,,,0.00,Wunderground v.1.15,2013-01-10 12:25:00,
2013-01-10 07:35:00,68.3,67.4,30.26,ENE,59,0.0,1.0,97,0.00,,,0.00,Wunderground v.1.15,2013-01-10 12:35:00,
2013-01-10 07:45:00,68.3,67.4,30.26,ENE,59,0.0,1.0,97,0.00,,,0.00,Wunderground v.1.15,2013-01-10 12:45:00,
2013-01-10 07:55:00,68.3,67.4,30.26,ENE,59,0.0,1.0,97,0.00,,,0.00,Wunderground v.1.15,2013-01-10 12:55:00,
2013-01-10 08:00:00,68.3,67.4,30.26,ENE,59,0.0,1.0,97,0.00,,,0.00,Wunderground v.1.15,2013-01-10 13:00:00,
2013-01-10 08:10:00,68.3,67.4,30.26,ENE,59,0.0,1.0,97,0.00,,,0.00,Wunderground v.1.15,2013-01-10 13:10:00,
2013-01-10 08:20:00,68.4,67.5,30.26,ENE,59,0.0,1.0,97,0.00,,,0.00,Wunderground v.1.15,2013-01-10 13:20:00,
2013-01-10 08:30:00,68.4,67.5,30.26,East,80,0.0,1.0,97,0.00,,,0.00,Wunderground v.1.15,2013-01-10 13:30:00,
2013-01-10 08:40:00,68.4,67.5,30.26,East,80,0.0,1.0,97,0.00,,,0.00,Wunderground v.1.15,2013-01-10 13:40:00,
2013-01-10 08:45:00,68.6,67.7,30.26,East,80,0.0,1.0,97,0.00,,,0.00,Wunderground v.1.15,2013-01-10 13:45:00,
2013-01-10 08:55:00,68.4,67.5,30.26,East,97,0.0,1.0,97,0.00,,,0.00,Wunderground v.1.15,2013-01-10 13:55:00,
2013-01-10 09:05:00,68.6,67.7,30.26,East,92,0.0,1.0,97,0.00,,,0.00,Wunderground v.1.15,2013-01-10 14:05:00,
2013-01-10 09:15:00,68.6,67.7,30.26,ESE,102,0.0,1.0,97,0.00,,,0.00,Wunderground v.1.15,2013-01-10 14:15:00,
2013-01-10 09:25:00,69.1,68.2,30.27,ESE,102,0.0,1.0,97,0.00,,,0.00,Wunderground v.1.15,2013-01-10 14:25:00,
2013-01-10 09:35:00,69.4,68.5,30.27,ESE,102,0.0,1.0,97,0.00,,,0.00,Wunderground v.1.15,2013-01-10 14:35:00,
2013-01-10 09:45:00,69.9,69.0,30.27,ESE,102,0.0,1.0,97,0.00,,,0.00,Wunderground v.1.15,2013-01-10 14:45:00,
2013-01-10 09:55:00,70.4,69.2,30.26,East,97,0.0,1.0,96,0.00,,,0.00,Wunderground v.1.15,2013-01-10 14:55:00,
2013-01-10 10:05:00,71.1,69.6,30.26,SE,130,0.0,1.0,95,0.00,,,0.00,Wunderground v.1.15,2013-01-10 15:05:00,
2013-01-10 10:10:00,71.5,69.4,30.26,SE,129,0.0,1.0,93,0.00,,,0.00,Wunderground v.1.15,2013-01-10 15:10:00,
2013-01-10 10:20:00,72.5,69.4,30.25,South,169,0.0,1.0,90,0.00,,,0.00,Wunderground v.1.15,2013-01-10 15:20:00,
2013-01-10 10:30:00,73.3,68.5,30.25,East,98,1.0,1.0,85,0.00,,,0.00,Wunderground v.1.15,2013-01-10 15:30:00,
2013-01-10 10:40:00,74.2,68.3,30.24,East,95,1.0,1.0,82,0.00,,,0.00,Wunderground v.1.15,2013-01-10 15:40:00,
2013-01-10 10:50:00,74.7,67.8,30.24,ESE,107,1.0,5.0,79,0.00,,,0.00,Wunderground v.1.15,2013-01-10 15:50:00,
2013-01-10 11:00:00,74.9,66.4,30.24,SE,126,1.0,1.0,75,0.00,,,0.00,Wunderground v.1.15,2013-01-10 16:00:00,
2013-01-10 11:10:00,75.6,65.5,30.23,ESE,123,1.0,1.0,71,0.00,,,0.00,Wunderground v.1.15,2013-01-10 16:10:00,
2013-01-10 11:20:00,76.5,65.1,30.22,ENE,66,1.0,1.0,68,0.00,,,0.00,Wunderground v.1.15,2013-01-10 16:20:00,
2013-01-10 11:30:00,77.0,64.3,30.22,ESE,107,1.0,1.0,65,0.00,,,0.00,Wunderground v.1.15,2013-01-10 16:30:00,
2013-01-10 11:40:00,77.7,64.5,30.21,ESE,113,1.0,1.0,64,0.00,,,0.00,Wunderground v.1.15,2013-01-10 16:40:00,
2013-01-10 11:50:00,77.7,64.1,30.21,East,86,1.0,1.0,63,0.00,,,0.00,Wunderground v.1.15,2013-01-10 16:50:00,
2013-01-10 12:00:00,77.4,63.8,30.21,NE,46,1.0,3.0,63,0.00,,,0.00,Wunderground v.1.15,2013-01-10 17:00:00,
2013-01-10 12:10:00,77.2,63.6,30.20,ESE,111,1.0,1.0,63,0.00,,,0.00,Wunderground v.1.15,2013-01-10 17:10:00,
2013-01-10 12:20:00,77.6,63.5,30.19,East,84,1.0,1.0,62,0.00,,,0.00,Wunderground v.1.15,2013-01-10 17:20:00,
2013-01-10 12:30:00,78.1,63.1,30.19,East,90,0.0,1.0,60,0.00,,,0.00,Wunderground v.1.15,2013-01-10 17:30:00,
2013-01-10 12:35:00,78.1,62.6,30.18,ESE,104,0.0,1.0,59,0.00,,,0.00,Wunderground v.1.15,2013-01-10 17:35:00,
2013-01-10 12:45:00,78.3,62.3,30.18,East,92,1.0,1.0,58,0.00,,,0.00,Wunderground v.1.15,2013-01-10 17:45:00,
2013-01-10 12:55:00,77.4,61.9,30.19,SE,126,0.0,1.0,59,0.00,,,0.00,Wunderground v.1.15,2013-01-10 17:55:00,
2013-01-10 13:05:00,77.0,62.0,30.19,East,94,0.0,1.0,60,0.00,,,0.00,Wunderground v.1.15,2013-01-10 18:05:00,
2013-01-10 13:10:00,77.2,62.7,30.19,East,94,0.0,1.0,61,0.00,,,0.00,Wunderground v.1.15,2013-01-10 18:10:00,
2013-01-10 13:20:00,78.5,61.5,30.18,ESE,111,0.0,1.0,56,0.00,,,0.00,Wunderground v.1.15,2013-01-10 18:20:00,
2013-01-10 13:25:00,78.8,61.3,30.18,ENE,63,1.0,1.0,55,0.00,,,0.00,Wunderground v.1.15,2013-01-10 18:25:00,
2013-01-10 13:35:00,79.8,61.7,30.18,ENE,78,1.0,4.0,54,0.00,,,0.00,Wunderground v.1.15,2013-01-10 18:35:00,
2013-01-10 13:45:00,81.1,60.7,30.18,ESE,105,2.0,4.0,50,0.00,,,0.00,Wunderground v.1.15,2013-01-10 18:45:00,
2013-01-10 13:55:00,82.0,60.4,30.18,East,101,1.0,4.0,48,0.00,,,0.00,Wunderground v.1.15,2013-01-10 18:55:00,
2013-01-10 14:05:00,81.8,60.2,30.18,ESE,115,1.0,1.0,48,0.00,,,0.00,Wunderground v.1.15,2013-01-10 19:05:00,
2013-01-10 14:15:00,81.4,61.0,30.18,East,94,0.0,1.0,50,0.00,,,0.00,Wunderground v.1.15,2013-01-10 19:15:00,
2013-01-10 14:25:00,80.7,59.2,30.17,ESE,104,0.0,1.0,48,0.00,,,0.00,Wunderground v.1.15,2013-01-10 19:25:00,
2013-01-10 14:35:00,79.4,59.1,30.18,East,80,0.0,1.0,50,0.00,,,0.00,Wunderground v.1.15,2013-01-10 19:35:00,
2013-01-10 14:45:00,78.6,60.0,30.18,East,90,0.0,1.0,53,0.00,,,0.00,Wunderground v.1.15,2013-01-10 19:45:00,
2013-01-10 14:50:00,78.5,59.4,30.18,ENE,78,0.0,1.0,52,0.00,,,0.00,Wunderground v.1.15,2013-01-10 19:50:00,
2013-01-10 15:00:00,78.3,59.8,30.18,East,79,0.0,0.0,53,0.00,,,0.00,Wunderground v.1.15,2013-01-10 20:00:00,
2013-01-10 15:10:00,78.5,59.9,30.18,East,86,0.0,1.0,53,0.00,,,0.00,Wunderground v.1.15,2013-01-10 20:10:00,
2013-01-10 15:15:00,78.6,60.0,30.18,East,86,0.0,1.0,53,0.00,,,0.00,Wunderground v.1.15,2013-01-10 20:15:00,
2013-01-10 15:25:00,80.1,59.8,30.19,ESE,105,0.0,1.0,50,0.00,,,0.00,Wunderground v.1.15,2013-01-10 20:25:00,
2013-01-10 15:30:00,81.1,59.0,30.19,ENE,61,1.0,1.0,47,0.00,,,0.00,Wunderground v.1.15,2013-01-10 20:30:00,
2013-01-10 15:40:00,81.8,59.0,30.19,ESE,105,1.0,3.0,46,0.00,,,0.00,Wunderground v.1.15,2013-01-10 20:40:00,
2013-01-10 15:50:00,82.0,59.2,30.18,SE,128,1.0,3.0,46,0.00,,,0.00,Wunderground v.1.15,2013-01-10 20:50:00,
2013-01-10 16:00:00,82.0,59.8,30.18,East,98,1.0,1.0,47,0.00,,,0.00,Wunderground v.1.15,2013-01-10 21:00:00,
2013-01-10 16:10:00,81.4,59.8,30.18,ESE,103,1.0,1.0,48,0.00,,,0.00,Wunderground v.1.15,2013-01-10 21:10:00,
2013-01-10 16:20:00,81.2,60.2,30.18,ESE,103,0.0,3.0,49,0.00,,,0.00,Wunderground v.1.15,2013-01-10 21:20:00,
2013-01-10 16:35:00,80.5,60.7,30.18,ESE,107,0.0,3.0,51,0.00,,,0.00,Wunderground v.1.15,2013-01-10 21:35:00,
2013-01-10 16:45:00,79.8,61.1,30.18,ESE,107,0.0,3.0,53,0.00,,,0.00,Wunderground v.1.15,2013-01-10 21:45:00,
2013-01-10 16:55:00,79.2,61.6,30.18,ESE,105,0.0,3.0,55,0.00,,,0.00,Wunderground v.1.15,2013-01-10 21:55:00,
2013-01-10 17:05:00,78.5,62.0,30.18,SE,127,0.0,3.0,57,0.00,,,0.00,Wunderground v.1.15,2013-01-10 22:05:00,
2013-01-10 17:20:00,77.6,62.6,30.18,SE,127,0.0,3.0,60,0.00,,,0.00,Wunderground v.1.15,2013-01-10 22:20:00,
2013-01-10 17:30:00,76.8,62.8,30.18,SE,127,0.0,3.0,62,0.00,,,0.00,Wunderground v.1.15,2013-01-10 22:30:00,
2013-01-10 17:40:00,76.3,63.2,30.18,SE,127,0.0,3.0,64,0.00,,,0.00,Wunderground v.1.15,2013-01-10 22:40:00,
2013-01-10 17:45:00,76.1,63.0,30.18,SE,127,0.0,3.0,64,0.00,,,0.00,Wunderground v.1.15,2013-01-10 22:45:00,
2013-01-10 17:50:00,75.8,63.2,30.19,SE,127,0.0,3.0,65,0.00,,,0.00,Wunderground v.1.15,2013-01-10 22:50:00,
2013-01-10 18:00:00,75.4,63.7,30.19,SE,127,0.0,3.0,67,0.00,,,0.00,Wunderground v.1.15,2013-01-10 23:00:00,
2013-01-10 18:05:00,75.1,63.4,30.19,SE,127,0.0,3.0,67,0.00,,,0.00,Wunderground v.1.15,2013-01-10 23:05:00,
2013-01-10 18:15:00,74.7,63.9,30.19,NNE,22,0.0,3.0,69,0.00,,,0.00,Wunderground v.1.15,2013-01-10 23:15:00,
2013-01-10 18:25:00,74.4,63.6,30.20,NE,53,0.0,3.0,69,0.00,,,0.00,Wunderground v.1.15,2013-01-10 23:25:00,
2013-01-10 18:35:00,73.9,63.5,30.20,NE,53,0.0,3.0,70,0.00,,,0.00,Wunderground v.1.15,2013-01-10 23:35:00,
2013-01-10 18:45:00,73.3,62.9,30.20,NE,53,0.0,3.0,70,0.00,,,0.00,Wunderground v.1.15,2013-01-10 23:45:00,
2013-01-10 18:55:00,72.8,62.8,30.20,NE,53,0.0,3.0,71,0.00,,,0.00,Wunderground v.1.15,2013-01-10 23:55:00,
2013-01-10 19:05:00,72.5,63.0,30.20,NE,53,0.0,3.0,72,0.00,,,0.00,Wunderground v.1.15,2013-01-11 00:05:00,
2013-01-10 19:10:00,72.3,63.2,30.20,NE,54,0.0,3.0,73,0.00,,,0.00,Wunderground v.1.15,2013-01-11 00:10:00,
2013-01-10 19:15:00,72.1,63.0,30.20,NE,54,0.0,3.0,73,0.00,,,0.00,Wunderground v.1.15,2013-01-11 00:15:00,
2013-01-10 19:25:00,72.0,63.3,30.20,NE,54,0.0,3.0,74,0.00,,,0.00,Wunderground v.1.15,2013-01-11 00:25:00,
2013-01-10 19:30:00,71.8,63.4,30.20,NE,54,0.0,3.0,75,0.00,,,0.00,Wunderground v.1.15,2013-01-11 00:30:00,
2013-01-10 19:40:00,71.5,63.2,30.20,NE,54,0.0,3.0,75,0.00,,,0.00,Wunderground v.1.15,2013-01-11 00:40:00,
2013-01-10 19:50:00,71.3,63.7,30.20,East,80,0.0,3.0,77,0.00,,,0.00,Wunderground v.1.15,2013-01-11 00:50:00,
2013-01-10 20:00:00,71.1,63.9,30.20,East,80,0.0,3.0,78,0.00,,,0.00,Wunderground v.1.15,2013-01-11 01:00:00,
2013-01-10 20:10:00,70.9,63.7,30.20,East,84,0.0,3.0,78,0.00,,,0.00,Wunderground v.1.15,2013-01-11 01:10:00,
2013-01-10 20:15:00,70.9,64.1,30.20,East,84,0.0,3.0,79,0.00,,,0.00,Wunderground v.1.15,2013-01-11 01:15:00,
2013-01-10 20:25:00,70.6,64.1,30.21,East,84,0.0,3.0,80,0.00,,,0.00,Wunderground v.1.15,2013-01-11 01:25:00,
2013-01-10 20:35:00,70.3,63.8,30.22,East,84,0.0,3.0,80,0.00,,,0.00,Wunderground v.1.15,2013-01-11 01:35:00,
2013-01-10 20:45:00,69.9,63.8,30.22,East,84,0.0,3.0,81,0.00,,,0.00,Wunderground v.1.15,2013-01-11 01:45:00,
2013-01-10 20:55:00,69.4,63.7,30.23,East,84,0.0,3.0,82,0.00,,,0.00,Wunderground v.1.15,2013-01-11 01:55:00,
2013-01-10 21:00:00,69.3,63.9,30.23,East,84,0.0,3.0,83,0.00,,,0.00,Wunderground v.1.15,2013-01-11 02:00:00,
2013-01-10 21:10:00,68.9,63.5,30.23,East,84,0.0,3.0,83,0.00,,,0.00,Wunderground v.1.15,2013-01-11 02:10:00,
2013-01-10 21:20:00,68.6,63.6,30.23,East,84,0.0,3.0,84,0.00,,,0.00,Wunderground v.1.15,2013-01-11 02:20:00,
2013-01-10 21:25:00,68.4,63.7,30.23,East,84,0.0,3.0,85,0.00,,,0.00,Wunderground v.1.15,2013-01-11 02:25:00,
2013-01-10 21:30:00,68.3,63.6,30.23,East,84,0.0,3.0,85,0.00,,,0.00,Wunderground v.1.15,2013-01-11 02:30:00,
2013-01-10 21:41:00,67.9,63.6,30.23,East,84,0.0,3.0,86,0.00,,,0.00,Wunderground v.1.15,2013-01-11 02:41:00,
2013-01-10 21:50:00,67.6,63.3,30.23,East,84,0.0,3.0,86,0.00,,,0.00,Wunderground v.1.15,2013-01-11 02:50:00,
2013-01-10 22:00:00,67.3,63.3,30.23,East,84,0.0,3.0,87,0.00,,,0.00,Wunderground v.1.15,2013-01-11 03:00:00,
2013-01-10 22:10:00,66.9,63.2,30.23,East,84,0.0,3.0,88,0.00,,,0.00,Wunderground v.1.15,2013-01-11 03:10:00,
2013-01-10 22:20:00,66.6,63.3,30.23,East,84,0.0,3.0,89,0.00,,,0.00,Wunderground v.1.15,2013-01-11 03:20:00,
2013-01-10 22:30:00,66.4,63.4,30.23,East,84,0.0,3.0,90,0.00,,,0.00,Wunderground v.1.15,2013-01-11 03:30:00,
2013-01-10 22:40:00,66.3,63.3,30.22,East,84,0.0,3.0,90,0.00,,,0.00,Wunderground v.1.15,2013-01-11 03:40:00,
2013-01-10 22:50:00,66.1,63.4,30.22,East,84,0.0,3.0,91,0.00,,,0.00,Wunderground v.1.15,2013-01-11 03:50:00,
2013-01-10 23:00:00,65.8,63.1,30.22,East,84,0.0,3.0,91,0.00,,,0.00,Wunderground v.1.15,2013-01-11 04:00:00,
2013-01-10 23:10:00,65.6,62.9,30.22,East,84,0.0,3.0,91,0.00,,,0.00,Wunderground v.1.15,2013-01-11 04:10:00,
2013-01-10 23:20:00,65.3,62.9,30.22,East,84,0.0,3.0,92,0.00,,,0.00,Wunderground v.1.15,2013-01-11 04:20:00,
2013-01-10 23:30:00,65.0,62.6,30.22,East,84,0.0,3.0,92,0.00,,,0.00,Wunderground v.1.15,2013-01-11 04:30:00,
2013-01-10 23:40:00,64.7,62.3,30.21,East,84,0.0,3.0,92,0.00,,,0.00,Wunderground v.1.15,2013-01-11 04:40:00,
2013-01-10 23:50:00,64.5,62.4,30.21,East,84,0.0,3.0,93,0.00,,,0.00,Wunderground v.1.15,2013-01-11 04:50:00,